Startpagina
METAR-TAF:

METAR-TAF

Vliegvelden :

Ilo, Peru

breedte: 17-41-45S, lengte: 071-20-35W, hoogte: 22 m

Actueel weer

Dit bericht is 9 uur en het 16 minuten geleden gemaakt, om 21:00 UTC
Wind 3 kt uit het zuidzuidwesten
Temperatuur 17°C
Vochtigheid 77%
Druk 1014 hPa
Zicht 10 km of meer
Geheel bewolkt op 3000 ft

METAR: SPLO 152100Z 21003KT 9999 OVC030 17/13 Q1014 RMK TX 18.4 PP000

Tijdstip: 01:16 (06:16 UTC)

Verwachting

Dit bericht is 13 uur en het 16 minuten geleden gemaakt, om 17:00 UTC
Verwachting geldig van 15 om 18 UTC tot 16 om 18 UTC
Wind 10 kt uit het zuiden
Zicht 10 km of meer
Verspreide wolken op 3000 ft
Van 15 om 2300 UTC
Wind 5 kt uit het zuiden
Zicht 10 km of meer
Gebroken wolken op 2000 ft

TAF: SPLO 151700Z 1518/1618 18010KT 9999 SCT030 TX20/1519Z TN13/1610Z FM152300 18005KT 9999 BKN020

Waarnemingen en weersverwachtingen van meer dan 4000 vliegvelden (METAR en TAF).

De beschikbare stations zijn de gele en rode punten op de kaart.

Ga met uw muis naar het station om de naam te zien.

Klik dan om waarnemingen en weersverwachtingen te zien.

kaart wijzigen: klik op de groene knoppen met een zwart kruis om in te zoomen, op de groene knop met een streepje om uit te zoomen of op de groene pijlen voor aangrenzende kaarten.


METAR-TAF: